Time;durP1;ratioP1;P1;durP2;ratioP2;P2;SDS_P1;SDS_P2;PMS_P1;PMS_P2;Temp;Humidity;BMP_temperature;BMP_pressure;BME280_temperature;BME280_humidity;BME280_pressure;Samples;Min_cycle;Max_cycle;Signal;HPM_P1;HPM_P2
2023/11/08 00:01:03;;;;;;;4.80;2.00;;;;;;;10.67;54.23;97540.19;5044428;28;20203;-69
2023/11/08 00:03:28;;;;;;;7.30;2.30;;;;;;;10.63;54.50;97530.97;5039333;28;20191;-69
2023/11/08 00:05:54;;;;;;;3.20;1.50;;;;;;;10.59;54.38;97531.25;5037012;28;20223;-70
2023/11/08 00:08:20;;;;;;;2.70;1.67;;;;;;;10.57;54.40;97524.50;5026888;28;20194;-73
2023/11/08 00:10:46;;;;;;;5.90;1.70;;;;;;;10.65;54.22;97523.78;5038143;28;20249;-72
2023/11/08 00:13:12;;;;;;;7.50;2.10;;;;;;;10.66;54.04;97520.19;5047252;28;20434;-69
2023/11/08 00:15:38;;;;;;;2.40;1.60;;;;;;;10.69;53.66;97520.72;5047533;28;20472;-71
2023/11/08 00:18:05;;;;;;;4.80;1.50;;;;;;;10.68;53.53;97513.81;5037249;28;20496;-70
2023/11/08 00:20:31;;;;;;;6.80;1.37;;;;;;;10.66;53.71;97522.81;5010653;28;20219;-71
2023/11/08 00:22:57;;;;;;;3.40;1.80;;;;;;;10.63;53.86;97518.69;5047956;28;20451;-70
2023/11/08 00:25:23;;;;;;;4.37;1.70;;;;;;;10.66;53.59;97518.38;5051551;28;20214;-70
2023/11/08 00:27:48;;;;;;;1.70;1.20;;;;;;;10.66;53.70;97523.63;5046575;28;21057;-70
2023/11/08 00:30:14;;;;;;;9.23;1.70;;;;;;;10.70;53.36;97529.44;5043162;28;20264;-70
2023/11/08 00:32:39;;;;;;;2.80;1.57;;;;;;;10.70;53.36;97539.91;5050777;28;20180;-71
2023/11/08 00:35:05;;;;;;;4.83;2.03;;;;;;;10.70;53.48;97539.91;5046792;28;20662;-70
2023/11/08 00:37:30;;;;;;;3.93;1.70;;;;;;;10.69;53.59;97549.56;5033486;28;20221;-71
2023/11/08 00:39:56;;;;;;;4.13;1.43;;;;;;;10.74;53.43;97552.59;5046000;28;20572;-71
2023/11/08 00:42:22;;;;;;;8.93;2.10;;;;;;;10.77;53.69;97559.31;5050626;28;20655;-70
2023/11/08 00:44:48;;;;;;;6.73;1.93;;;;;;;10.74;54.12;97555.19;5050698;28;20521;-70
2023/11/08 00:47:14;;;;;;;3.53;1.80;;;;;;;10.79;54.51;97560.00;5048223;28;20242;-69
2023/11/08 00:49:41;;;;;;;3.83;1.87;;;;;;;10.81;54.49;97558.06;5051002;28;20183;-72
2023/11/08 00:52:06;;;;;;;6.83;1.97;;;;;;;10.84;54.99;97556.94;5050966;28;21002;-70
2023/11/08 00:54:33;;;;;;;6.37;1.70;;;;;;;10.91;55.05;97564.09;5050763;28;20434;-70
2023/11/08 00:56:59;;;;;;;2.93;1.50;;;;;;;10.98;55.31;97568.75;5040823;28;20285;-71
2023/11/08 00:59:25;;;;;;;1.93;1.50;;;;;;;10.96;55.32;97560.22;5046229;28;20995;-71
2023/11/08 01:01:51;;;;;;;5.43;1.90;;;;;;;10.95;55.58;97558.56;5047568;28;20469;-70
2023/11/08 01:04:16;;;;;;;5.50;1.53;;;;;;;10.93;55.50;97555.25;5050096;28;20517;-74
2023/11/08 01:06:42;;;;;;;6.10;1.90;;;;;;;10.94;55.75;97551.66;5050225;28;20210;-69
2023/11/08 01:09:08;;;;;;;3.20;1.70;;;;;;;10.85;55.98;97562.03;5050011;28;20622;-70
2023/11/08 01:11:34;;;;;;;5.23;1.63;;;;;;;10.90;55.89;97556.34;5050257;28;20253;-70
2023/11/08 01:14:01;;;;;;;4.70;1.77;;;;;;;10.89;56.12;97555.53;5044073;28;20426;-73
2023/11/08 01:16:27;;;;;;;3.40;1.47;;;;;;;10.77;55.76;97551.47;5047669;28;20215;-74
2023/11/08 01:18:54;;;;;;;2.90;1.30;;;;;;;10.86;55.65;97550.59;5041603;28;20446;-69
2023/11/08 01:21:20;;;;;;;3.90;1.33;;;;;;;10.78;56.04;97558.34;5039450;28;21001;-70
2023/11/08 01:23:45;;;;;;;5.07;1.90;;;;;;;10.82;56.11;97546.63;5050124;28;20441;-72
2023/11/08 01:26:11;;;;;;;4.47;1.37;;;;;;;10.76;56.26;97552.44;5020954;28;20490;-70
2023/11/08 01:28:36;;;;;;;2.67;1.40;;;;;;;10.80;55.91;97552.97;5044754;28;20195;-68
2023/11/08 01:31:03;;;;;;;2.40;1.33;;;;;;;10.79;56.05;97553.94;5028321;28;20266;-71
2023/11/08 01:33:28;;;;;;;6.90;1.70;;;;;;;10.81;55.96;97547.59;5039737;28;20195;-69
2023/11/08 01:35:54;;;;;;;3.20;1.50;;;;;;;10.79;56.01;97546.91;5045983;28;20456;-71
2023/11/08 01:38:19;;;;;;;6.23;1.93;;;;;;;10.81;56.10;97552.84;5045336;28;20184;-69
2023/11/08 01:40:45;;;;;;;3.17;1.40;;;;;;;10.75;56.07;97543.75;5046083;28;20632;-69
2023/11/08 01:43:29;;;;;;;3.47;1.23;;;;;;;10.65;56.41;97547.38;5048034;28;20286;-72
2023/11/08 01:46:03;;;;;;;2.77;1.60;;;;;;;10.48;56.57;97547.16;5040420;28;20190;-70
2023/11/08 01:48:29;;;;;;;2.93;1.40;;;;;;;10.56;56.73;97551.69;5049896;28;20610;-70
2023/11/08 01:50:54;;;;;;;2.30;1.67;;;;;;;10.59;56.43;97554.03;5031120;28;20429;-70
2023/11/08 01:53:20;;;;;;;3.60;1.70;;;;;;;10.59;56.37;97546.97;5046179;28;20230;-69
2023/11/08 01:55:45;;;;;;;2.90;1.40;;;;;;;10.52;56.46;97545.09;5031310;28;20203;-71
2023/11/08 01:58:11;;;;;;;3.70;1.53;;;;;;;10.53;56.26;97544.94;5041582;28;20231;-70
2023/11/08 02:00:38;;;;;;;5.37;1.83;;;;;;;10.53;56.72;97550.19;5037775;28;20466;-71
2023/11/08 02:03:03;;;;;;;3.83;1.40;;;;;;;10.50;56.61;97542.59;5041763;28;20578;-70
2023/11/08 02:05:29;;;;;;;6.73;1.77;;;;;;;10.41;56.62;97548.72;5043794;28;20444;-71
2023/11/08 02:07:55;;;;;;;4.30;1.20;;;;;;;10.34;56.70;97544.94;5042571;28;20822;-70
2023/11/08 02:10:21;;;;;;;4.93;1.20;;;;;;;10.34;56.90;97555.44;5044773;28;20191;-71
2023/11/08 02:12:47;;;;;;;2.10;1.10;;;;;;;10.24;57.10;97543.19;5044834;28;20845;-70
2023/11/08 02:15:15;;;;;;;1.93;0.97;;;;;;;10.24;57.09;97543.19;5040557;28;20853;-71
2023/11/08 02:17:40;;;;;;;1.97;1.40;;;;;;;10.36;56.89;97532.53;5037725;28;21022;-70
2023/11/08 02:20:08;;;;;;;3.20;1.17;;;;;;;10.35;56.79;97538.75;5040172;28;20430;-71
2023/11/08 02:22:35;;;;;;;2.37;1.17;;;;;;;10.38;56.90;97535.88;5043546;28;20310;-71
2023/11/08 02:25:00;;;;;;;1.90;1.20;;;;;;;10.39;56.94;97538.38;5036394;28;20437;-69
2023/11/08 02:27:26;;;;;;;3.20;1.13;;;;;;;10.40;56.87;97539.19;5037953;28;20464;-70
2023/11/08 02:29:51;;;;;;;1.30;1.00;;;;;;;10.41;56.96;97533.78;5001151;28;20309;-70
2023/11/08 02:32:17;;;;;;;1.90;1.17;;;;;;;10.38;57.26;97525.41;5047022;28;20191;-72
2023/11/08 02:34:42;;;;;;;2.73;1.37;;;;;;;10.37;57.34;97532.41;5041758;28;20226;-72
2023/11/08 02:37:07;;;;;;;2.00;1.23;;;;;;;10.36;57.12;97532.53;5046510;28;20265;-69
2023/11/08 02:39:33;;;;;;;3.30;1.30;;;;;;;10.38;57.41;97525.41;5046924;28;20205;-71
2023/11/08 02:41:58;;;;;;;2.47;1.50;;;;;;;10.41;57.35;97527.75;5046538;28;20709;-69
2023/11/08 02:44:26;;;;;;;1.50;1.27;;;;;;;10.39;57.48;97524.44;5047735;28;20608;-71
2023/11/08 02:46:52;;;;;;;3.27;1.10;;;;;;;10.42;57.45;97524.16;5047417;28;20222;-71
2023/11/08 02:49:18;;;;;;;4.47;1.40;;;;;;;10.42;57.62;97529.41;5040660;28;20426;-72
2023/11/08 02:51:44;;;;;;;3.50;1.83;;;;;;;10.38;57.54;97531.47;5048990;28;20422;-72
2023/11/08 02:54:09;;;;;;;2.27;1.23;;;;;;;10.42;57.37;97526.78;5039640;28;20822;-71
2023/11/08 02:56:40;;;;;;;2.70;1.20;;;;;;;10.40;57.48;97531.31;5042136;28;20211;-72
2023/11/08 02:59:06;;;;;;;2.47;1.33;;;;;;;10.40;57.55;97533.94;5039816;28;20203;-72
2023/11/08 03:01:31;;;;;;;1.67;1.20;;;;;;;10.43;57.27;97524.00;5049286;28;20473;-70
2023/11/08 03:03:56;;;;;;;3.73;1.20;;;;;;;10.40;57.38;97533.94;5047341;28;20277;-70
2023/11/08 03:06:22;;;;;;;4.97;1.47;;;;;;;10.39;57.25;97533.13;5031168;28;20619;-71
2023/11/08 03:08:48;;;;;;;4.03;1.53;;;;;;;10.36;57.59;97533.38;4992953;28;20617;-71
2023/11/08 03:11:13;;;;;;;2.13;1.10;;;;;;;10.35;57.62;97530.88;5013043;28;20184;-71
2023/11/08 03:13:39;;;;;;;1.60;1.10;;;;;;;10.38;57.32;97535.88;5008500;28;20214;-71
2023/11/08 03:16:06;;;;;;;2.27;1.13;;;;;;;10.32;57.70;97536.44;5043959;28;20671;-70
2023/11/08 03:18:31;;;;;;;3.10;1.10;;;;;;;10.27;57.73;97535.06;5048454;28;20282;-70
2023/11/08 03:20:57;;;;;;;4.63;1.40;;;;;;;10.29;57.97;97540.97;5047880;28;20544;-70
2023/11/08 03:23:22;;;;;;;1.93;1.37;;;;;;;10.32;57.76;97542.50;5036710;28;20254;-70
2023/11/08 03:25:48;;;;;;;2.90;1.40;;;;;;;10.30;57.65;97550.50;5043724;28;20202;-70
2023/11/08 03:28:14;;;;;;;5.10;1.30;;;;;;;10.31;57.76;97551.31;5042535;28;20207;-69
2023/11/08 03:30:39;;;;;;;2.23;1.40;;;;;;;10.35;57.62;97552.69;5038531;28;20686;-70
2023/11/08 03:33:06;;;;;;;3.37;1.20;;;;;;;10.39;57.76;97555.88;5044349;28;20466;-71
2023/11/08 03:35:32;;;;;;;2.40;1.27;;;;;;;10.35;57.80;97552.69;5036974;28;20200;-71
2023/11/08 03:37:57;;;;;;;5.80;1.47;;;;;;;10.38;57.72;97559.47;5038458;28;20445;-71
2023/11/08 03:40:23;;;;;;;1.90;1.30;;;;;;;10.36;57.93;97556.13;5042258;28;20478;-69
2023/11/08 03:42:48;;;;;;;2.80;1.37;;;;;;;10.36;58.23;97561.34;5029602;28;20278;-70
2023/11/08 03:45:14;;;;;;;5.47;1.60;;;;;;;10.37;57.96;97560.41;5044473;28;20227;-72
2023/11/08 03:47:39;;;;;;;4.13;1.53;;;;;;;10.36;57.95;97553.50;5046459;28;20206;-71
2023/11/08 03:50:05;;;;;;;5.07;1.50;;;;;;;10.32;58.46;97563.44;5037581;28;20247;-70
2023/11/08 03:52:31;;;;;;;6.10;1.20;;;;;;;10.43;58.04;97562.50;5039543;28;20199;-70
2023/11/08 03:54:57;;;;;;;3.43;1.40;;;;;;;10.44;57.58;97567.59;5027797;28;20460;-70
2023/11/08 03:57:23;;;;;;;3.63;1.20;;;;;;;10.53;57.94;97567.69;5043997;28;20224;-69
2023/11/08 03:59:53;;;;;;;2.47;1.40;;;;;;;10.57;57.75;97562.03;5051902;28;20820;-69
2023/11/08 04:02:20;;;;;;;6.80;1.40;;;;;;;10.61;57.64;97565.19;5050683;28;20222;-71
2023/11/08 04:04:47;;;;;;;2.30;1.53;;;;;;;10.59;57.77;97565.31;5025438;28;20430;-70
2023/11/08 04:07:12;;;;;;;3.63;1.53;;;;;;;10.58;57.94;97565.47;5048218;28;20454;-71
2023/11/08 04:09:40;;;;;;;5.43;1.63;;;;;;;10.60;57.56;97569.59;5042085;28;20434;-70
2023/11/08 04:12:06;;;;;;;3.10;1.60;;;;;;;10.65;57.59;97570.97;5036679;28;20530;-69
2023/11/08 04:14:32;;;;;;;5.43;1.50;;;;;;;10.67;57.48;97588.19;5039011;28;20446;-70
2023/11/08 04:16:59;;;;;;;4.20;1.50;;;;;;;10.71;57.25;97583.50;5051082;28;20447;-70
2023/11/08 04:19:24;;;;;;;4.77;1.90;;;;;;;10.67;57.48;97574.28;5051473;28;20673;-71
2023/11/08 04:21:49;;;;;;;3.33;1.50;;;;;;;10.65;57.13;97570.97;5050787;28;20461;-73
2023/11/08 04:24:15;;;;;;;4.47;1.43;;;;;;;10.70;56.96;97581.84;5048289;28;20183;-72
2023/11/08 04:26:40;;;;;;;3.13;1.50;;;;;;;10.66;56.98;97583.09;5019993;28;20228;-72
2023/11/08 04:29:06;;;;;;;2.27;1.23;;;;;;;10.63;56.85;97580.75;5048288;28;20218;-74
2023/11/08 04:31:32;;;;;;;2.90;1.70;;;;;;;10.68;56.93;97583.78;5050726;28;20210;-72
2023/11/08 04:33:57;;;;;;;2.90;1.70;;;;;;;10.66;57.01;97591.78;5044314;28;20187;-71
2023/11/08 04:36:26;;;;;;;4.23;1.70;;;;;;;10.66;56.96;97590.97;5038562;28;20468;-69
2023/11/08 04:38:53;;;;;;;6.87;1.60;;;;;;;10.68;56.77;97583.78;5051167;28;20565;-70
2023/11/08 04:41:19;;;;;;;7.90;2.10;;;;;;;10.68;57.05;97589.03;5040918;28;20461;-71
2023/11/08 04:43:45;;;;;;;4.80;1.70;;;;;;;10.68;56.97;97586.41;5048007;28;20469;-71
2023/11/08 04:46:11;;;;;;;4.53;1.63;;;;;;;10.70;56.80;97590.53;5031277;28;20426;-69
2023/11/08 04:48:37;;;;;;;4.30;1.60;;;;;;;10.67;56.91;97588.19;5000085;28;20194;-71
2023/11/08 04:51:03;;;;;;;4.20;1.70;;;;;;;10.68;56.76;97589.84;5049055;28;21178;-72
2023/11/08 04:53:29;;;;;;;3.20;2.30;;;;;;;10.63;56.69;97597.34;5043262;28;20807;-71
2023/11/08 04:55:54;;;;;;;2.30;1.57;;;;;;;10.64;57.16;97599.00;5047256;28;20464;-71
2023/11/08 04:58:20;;;;;;;6.70;1.70;;;;;;;10.64;57.52;97592.91;5042498;28;20338;-71
2023/11/08 05:00:45;;;;;;;2.83;1.50;;;;;;;10.63;57.48;97593.88;5045491;28;20798;-73
2023/11/08 05:03:11;;;;;;;3.30;1.60;;;;;;;10.67;57.79;97592.63;5044953;28;20245;-71
2023/11/08 05:05:36;;;;;;;2.73;1.60;;;;;;;10.69;57.85;97582.81;5044250;28;20223;-72
2023/11/08 05:08:04;;;;;;;4.13;1.50;;;;;;;10.58;58.29;97584.66;5048509;28;20214;-71
2023/11/08 05:10:30;;;;;;;5.57;2.93;;;;;;;10.53;58.40;97591.28;5003887;28;20203;-71
2023/11/08 05:12:56;;;;;;;6.23;2.30;;;;;;;10.57;58.49;97588.25;5043321;28;20760;-70
2023/11/08 05:15:23;;;;;;;5.10;2.23;;;;;;;10.58;58.30;97594.31;5049287;28;20191;-71
2023/11/08 05:17:49;;;;;;;6.97;1.80;;;;;;;10.56;58.33;97586.59;5045245;28;20454;-71
2023/11/08 05:20:14;;;;;;;7.00;2.00;;;;;;;10.62;58.19;97586.97;5048702;28;20858;-72
2023/11/08 05:22:40;;;;;;;2.97;1.90;;;;;;;10.64;57.91;97585.88;5025444;28;20187;-71
2023/11/08 05:25:06;;;;;;;2.20;1.60;;;;;;;10.59;57.99;97591.53;5022118;28;20201;-70
2023/11/08 05:27:32;;;;;;;4.60;1.80;;;;;;;10.58;57.97;97595.16;5023058;28;20453;-70
2023/11/08 05:29:58;;;;;;;6.00;2.20;;;;;;;10.58;58.26;97589.91;5031565;28;20195;-70
2023/11/08 05:32:24;;;;;;;7.20;2.00;;;;;;;10.55;58.14;97584.94;5048249;28;20191;-74
2023/11/08 05:34:50;;;;;;;5.27;2.27;;;;;;;10.45;58.11;97589.38;5046170;28;20592;-73
2023/11/08 05:37:15;;;;;;;4.30;2.20;;;;;;;10.49;58.10;97585.50;5046670;28;20455;-72
2023/11/08 05:39:43;;;;;;;3.70;1.90;;;;;;;10.51;57.82;97586.19;5007883;28;20206;-71
2023/11/08 05:42:08;;;;;;;4.13;2.00;;;;;;;10.50;58.02;97581.91;5027282;28;20230;-70
2023/11/08 05:44:33;;;;;;;2.70;1.80;;;;;;;10.46;57.52;97585.78;5049468;28;21133;-71
2023/11/08 05:46:59;;;;;;;5.70;2.30;;;;;;;10.48;57.80;97591.69;5027905;28;20238;-70
2023/11/08 05:49:24;;;;;;;3.57;2.07;;;;;;;10.48;57.84;97596.94;5044210;28;20199;-70
2023/11/08 05:51:50;;;;;;;5.40;2.43;;;;;;;10.47;57.86;97592.66;5027136;28;20184;-71
2023/11/08 05:54:15;;;;;;;8.33;2.20;;;;;;;10.49;57.66;97588.13;5045555;28;20277;-69
2023/11/08 05:56:41;;;;;;;3.80;2.00;;;;;;;10.49;57.66;97588.13;5034131;28;20272;-70
2023/11/08 05:59:07;;;;;;;2.53;2.17;;;;;;;10.43;57.65;97591.31;5045874;28;20187;-72
2023/11/08 06:01:32;;;;;;;12.40;2.60;;;;;;;10.43;57.87;97591.31;5041059;28;20217;-70
2023/11/08 06:03:59;;;;;;;4.33;1.80;;;;;;;10.47;57.73;97586.63;5046997;28;20183;-68
2023/11/08 06:06:24;;;;;;;7.83;2.57;;;;;;;10.40;57.62;97592.41;5027599;28;20594;-72
2023/11/08 06:08:50;;;;;;;4.13;2.33;;;;;;;10.40;57.81;97594.22;5045919;28;20509;-73
2023/11/08 06:11:16;;;;;;;3.30;1.90;;;;;;;10.36;57.81;97596.25;5045652;28;20398;-70
2023/11/08 06:13:44;;;;;;;4.63;2.33;;;;;;;10.38;57.83;97591.75;5042638;28;20187;-70
2023/11/08 06:16:11;;;;;;;3.43;2.33;;;;;;;10.39;57.67;97598.63;5043764;28;20956;-69
2023/11/08 06:18:36;;;;;;;2.70;2.00;;;;;;;10.35;57.58;97609.50;5048265;28;20969;-69
2023/11/08 06:21:02;;;;;;;6.03;2.30;;;;;;;10.32;57.82;97609.78;5041924;28;20488;-71
2023/11/08 06:23:28;;;;;;;6.77;2.67;;;;;;;10.27;57.83;97613.66;5039787;28;20206;-72
2023/11/08 06:25:54;;;;;;;5.23;2.30;;;;;;;10.25;57.90;97617.38;5040401;28;20426;-70
2023/11/08 06:28:19;;;;;;;6.80;2.50;;;;;;;10.17;58.30;97620.69;5043372;28;20741;-72
2023/11/08 06:30:45;;;;;;;5.43;2.20;;;;;;;10.21;58.06;97622.06;5041056;28;20204;-71
2023/11/08 06:33:10;;;;;;;3.47;2.30;;;;;;;10.18;58.23;97617.13;5039409;28;20192;-71
2023/11/08 06:35:37;;;;;;;7.97;2.90;;;;;;;10.18;58.22;97622.34;5045142;28;20250;-72
2023/11/08 06:38:03;;;;;;;6.20;2.73;;;;;;;10.19;58.05;97610.91;5042705;28;20632;-70
2023/11/08 06:40:28;;;;;;;3.60;2.07;;;;;;;10.16;58.42;97619.03;5048170;28;20461;-72
2023/11/08 06:42:55;;;;;;;5.63;2.13;;;;;;;10.23;58.14;97619.31;5048407;28;20183;-73
2023/11/08 06:45:20;;;;;;;8.80;2.50;;;;;;;10.26;57.99;97619.03;5030420;28;20206;-74
2023/11/08 06:47:45;;;;;;;7.30;2.23;;;;;;;10.20;58.37;97620.44;5043766;28;20455;-71
2023/11/08 06:50:11;;;;;;;3.10;2.23;;;;;;;10.16;58.69;97619.03;5046207;28;20289;-72
2023/11/08 06:52:37;;;;;;;8.63;2.50;;;;;;;10.15;58.31;97618.19;5012843;28;20249;-71
2023/11/08 06:55:05;;;;;;;6.97;2.40;;;;;;;10.19;58.66;97631.88;5043840;28;20289;-72
2023/11/08 06:57:31;;;;;;;3.30;2.03;;;;;;;10.27;58.41;97623.31;5026693;28;20215;-71
2023/11/08 06:59:56;;;;;;;3.07;2.10;;;;;;;10.23;58.48;97621.94;5040907;28;20448;-70
2023/11/08 07:02:22;;;;;;;4.07;2.30;;;;;;;10.30;58.47;97612.53;5039028;28;20212;-71
2023/11/08 07:04:48;;;;;;;5.43;2.97;;;;;;;10.35;58.55;97620.81;5041737;28;20191;-71
2023/11/08 07:07:13;;;;;;;3.20;2.20;;;;;;;10.29;58.59;97624.81;5047325;28;20489;-72
2023/11/08 07:09:39;;;;;;;3.23;1.93;;;;;;;10.33;58.38;97629.78;5021357;28;20193;-72
2023/11/08 07:12:05;;;;;;;3.43;2.10;;;;;;;10.45;58.07;97624.25;5036047;28;20188;-71
2023/11/08 07:14:30;;;;;;;4.30;2.00;;;;;;;10.51;58.15;97628.09;5022387;28;20195;-71
2023/11/08 07:16:55;;;;;;;7.80;2.10;;;;;;;10.58;58.21;97631.84;5043611;28;20823;-72
2023/11/08 07:19:24;;;;;;;6.50;2.43;;;;;;;10.73;58.01;97644.47;5046572;28;20663;-72
2023/11/08 07:21:50;;;;;;;4.00;2.07;;;;;;;10.82;57.94;97638.38;5037382;28;20458;-71
2023/11/08 07:24:15;;;;;;;3.50;2.00;;;;;;;10.92;58.27;97646.19;5044070;28;20258;-71
2023/11/08 07:26:41;;;;;;;4.43;1.83;;;;;;;11.01;57.85;97647.13;5042411;28;20683;-72
2023/11/08 07:29:07;;;;;;;2.90;2.03;;;;;;;11.07;57.69;97662.31;5043381;28;20720;-72
2023/11/08 07:31:33;;;;;;;5.43;2.47;;;;;;;11.17;57.58;97660.47;5045813;28;20426;-73
2023/11/08 07:34:00;;;;;;;3.33;2.30;;;;;;;11.26;57.21;97669.28;5044276;28;20441;-73
2023/11/08 07:36:26;;;;;;;2.80;1.90;;;;;;;11.37;56.68;97673.47;5036879;28;20541;-72
2023/11/08 07:38:51;;;;;;;5.27;2.07;;;;;;;11.43;56.18;97672.91;5034685;28;20474;-72
2023/11/08 07:41:17;;;;;;;3.13;1.77;;;;;;;11.64;55.96;97669.19;5034453;28;20486;-70
2023/11/08 07:43:43;;;;;;;3.43;1.90;;;;;;;11.88;55.38;97663.38;5017921;28;20279;-72
2023/11/08 07:46:08;;;;;;;12.83;2.00;;;;;;;12.13;54.86;97664.44;5047029;28;20195;-71
2023/11/08 07:48:34;;;;;;;2.93;1.70;;;;;;;12.42;54.94;97673.91;5038414;28;20194;-72
2023/11/08 07:51:00;;;;;;;4.60;1.80;;;;;;;12.72;53.83;97669.19;5042528;28;20663;-72
2023/11/08 07:53:26;;;;;;;3.70;1.70;;;;;;;12.99;52.79;97664.72;5036738;28;20810;-72
2023/11/08 07:55:52;;;;;;;2.90;1.40;;;;;;;13.19;51.60;97665.31;5042002;28;20487;-72
2023/11/08 07:58:18;;;;;;;1.60;1.30;;;;;;;13.61;51.65;97661.03;5047359;28;20256;-72
2023/11/08 08:00:45;;;;;;;3.77;1.60;;;;;;;14.01;50.44;97665.72;5039510;28;20453;-72
2023/11/08 08:03:15;;;;;;;4.17;1.60;;;;;;;14.29;49.25;97661.81;5037669;28;20233;-71
2023/11/08 08:05:44;;;;;;;8.37;2.33;;;;;;;14.66;48.32;97661.44;5029981;28;20429;-73
2023/11/08 08:08:11;;;;;;;2.33;1.73;;;;;;;14.86;47.83;97657.50;5047099;28;21009;-72
2023/11/08 08:10:37;;;;;;;2.80;1.63;;;;;;;15.15;47.04;97661.34;5039070;28;20429;-71
2023/11/08 08:13:05;;;;;;;6.47;1.70;;;;;;;15.34;46.40;97659.31;5042290;28;20425;-72
2023/11/08 08:15:31;;;;;;;2.40;1.70;;;;;;;15.65;46.86;97655.84;5038223;28;20213;-71
2023/11/08 08:17:58;;;;;;;5.83;1.90;;;;;;;16.04;45.36;97660.28;5036240;28;20456;-73
2023/11/08 08:20:25;;;;;;;3.20;1.90;;;;;;;16.41;45.08;97661.31;5030990;28;20203;-71
2023/11/08 08:22:51;;;;;;;2.00;1.40;;;;;;;16.77;43.58;97653.69;5047456;28;20487;-71
2023/11/08 08:25:16;;;;;;;2.10;1.30;;;;;;;16.95;42.32;97662.16;5042949;28;20479;-71
2023/11/08 08:27:42;;;;;;;4.20;1.50;;;;;;;17.24;41.23;97655.22;5025748;28;20569;-71
2023/11/08 08:30:14;;;;;;;2.70;1.40;;;;;;;17.27;41.19;97654.03;5046831;28;20187;-72
2023/11/08 08:32:47;;;;;;;2.17;1.30;;;;;;;17.61;40.92;97648.13;5039092;28;20570;-73
2023/11/08 08:35:12;;;;;;;2.90;1.10;;;;;;;17.74;39.98;97649.28;5044612;28;20434;-69
2023/11/08 08:37:38;;;;;;;2.07;0.80;;;;;;;17.77;39.81;97649.72;5036643;28;20549;-72
2023/11/08 08:40:10;;;;;;;1.47;0.90;;;;;;;17.74;39.20;97644.78;5038853;28;20240;-71
2023/11/08 08:42:36;;;;;;;1.70;0.90;;;;;;;18.01;39.38;97637.13;5039759;28;20409;-71
2023/11/08 08:45:03;;;;;;;2.30;1.13;;;;;;;18.04;38.86;97644.72;5043369;28;20538;-72
2023/11/08 08:47:29;;;;;;;1.17;0.80;;;;;;;18.13;38.28;97647.25;5049647;28;20445;-71
2023/11/08 08:49:57;;;;;;;1.13;0.87;;;;;;;18.16;38.24;97647.66;5036697;28;20500;-72
2023/11/08 08:52:23;;;;;;;1.20;1.00;;;;;;;18.36;38.07;97647.03;5051041;28;20446;-71
2023/11/08 08:54:49;;;;;;;1.50;0.90;;;;;;;18.60;37.77;97652.94;5043254;28;20436;-71
2023/11/08 08:57:14;;;;;;;3.23;1.07;;;;;;;18.73;37.36;97647.72;5049824;28;20450;-71
2023/11/08 08:59:40;;;;;;;1.97;1.03;;;;;;;18.95;37.39;97653.00;5050551;28;20198;-72
2023/11/08 09:02:06;;;;;;;3.40;1.03;;;;;;;19.08;37.20;97646.97;5038221;28;20251;-72
2023/11/08 09:04:33;;;;;;;4.10;0.97;;;;;;;19.36;37.02;97646.88;5048830;28;20206;-72
2023/11/08 09:06:59;;;;;;;4.07;1.07;;;;;;;19.58;36.76;97644.09;5047498;28;20465;-73
2023/11/08 09:09:25;;;;;;;2.63;1.10;;;;;;;19.48;35.34;97657.75;5050288;28;20441;-72
2023/11/08 09:11:51;;;;;;;2.10;1.00;;;;;;;19.40;35.90;97650.78;5042881;28;20488;-72
2023/11/08 09:14:18;;;;;;;2.37;1.07;;;;;;;19.42;36.28;97646.06;5050566;28;20229;-71
2023/11/08 09:16:44;;;;;;;1.17;0.80;;;;;;;19.49;36.47;97640.78;5047682;28;20995;-71
2023/11/08 09:19:09;;;;;;;1.90;1.00;;;;;;;19.69;35.15;97638.19;5050012;28;20432;-73
2023/11/08 09:21:38;;;;;;;1.40;0.90;;;;;;;19.73;35.68;97644.75;5049004;28;20731;-71
2023/11/08 09:24:06;;;;;;;1.20;0.73;;;;;;;19.83;35.27;97644.38;5048346;28;20265;-71
2023/11/08 09:26:33;;;;;;;4.57;1.10;;;;;;;20.18;34.26;97649.59;5035724;28;20506;-72
2023/11/08 09:28:59;;;;;;;5.68;1.10;;;;;;;20.04;34.69;97648.72;5047111;28;20481;-72
2023/11/08 09:31:26;;;;;;;1.60;0.97;;;;;;;20.19;34.51;97645.91;5049824;28;20187;-71
2023/11/08 09:33:53;;;;;;;3.13;0.97;;;;;;;20.01;34.43;97656.31;5047071;28;20668;-72
2023/11/08 09:36:21;;;;;;;2.10;0.80;;;;;;;20.47;34.77;97650.22;5048490;28;20768;-72
2023/11/08 09:38:47;;;;;;;1.83;1.00;;;;;;;20.65;33.47;97654.09;5048443;28;20812;-73
2023/11/08 09:41:13;;;;;;;5.80;1.00;;;;;;;20.66;33.45;97655.72;5048382;28;21046;-72
2023/11/08 09:43:39;;;;;;;2.60;1.10;;;;;;;20.89;33.30;97652.66;5047783;28;20417;-72
2023/11/08 09:46:06;;;;;;;3.80;1.13;;;;;;;20.67;33.03;97644.03;5044897;28;20180;-72
2023/11/08 09:48:32;;;;;;;3.80;1.17;;;;;;;20.45;33.15;97656.75;5039997;28;21091;-71
2023/11/08 09:50:58;;;;;;;1.63;0.80;;;;;;;20.40;33.04;97658.19;5024017;28;20433;-73
2023/11/08 09:53:24;;;;;;;1.77;0.90;;;;;;;20.35;33.55;97655.31;5048665;28;20652;-72
2023/11/08 09:55:51;;;;;;;2.70;0.80;;;;;;;20.70;33.23;97656.97;5046056;28;20423;-72
2023/11/08 09:58:16;;;;;;;3.93;1.10;;;;;;;20.89;32.89;97659.81;5027091;28;20211;-72
2023/11/08 10:00:44;;;;;;;2.23;0.90;;;;;;;20.74;31.99;97654.69;5029764;28;21000;-71
2023/11/08 10:03:10;;;;;;;2.70;0.90;;;;;;;21.04;32.63;97646.28;5040758;28;20183;-71
2023/11/08 10:05:37;;;;;;;2.07;0.90;;;;;;;21.36;32.58;97660.50;5022477;28;20477;-71
2023/11/08 10:08:09;;;;;;;1.57;1.00;;;;;;;21.74;32.09;97656.28;5026658;28;20455;-71
2023/11/08 10:10:37;;;;;;;1.47;1.00;;;;;;;22.08;31.23;97647.06;5036908;28;20461;-72
2023/11/08 10:13:06;;;;;;;1.20;0.80;;;;;;;21.90;31.27;97649.63;5047853;28;20933;-71
2023/11/08 10:15:33;;;;;;;2.20;0.80;;;;;;;21.19;31.93;97652.16;5040918;28;20433;-70
2023/11/08 10:17:59;;;;;;;1.10;0.90;;;;;;;20.92;32.32;97636.25;5046490;28;20442;-72
2023/11/08 10:20:29;;;;;;;2.43;1.23;;;;;;;20.59;33.38;97634.44;5049040;28;20426;-73
2023/11/08 10:22:54;;;;;;;2.47;1.00;;;;;;;20.36;34.03;97630.34;5036455;28;20191;-72
2023/11/08 10:25:22;;;;;;;1.53;1.00;;;;;;;20.56;33.25;97634.84;5042531;28;20431;-72
2023/11/08 10:28:03;;;;;;;6.20;0.90;;;;;;;20.66;33.17;97639.75;5024979;28;20214;-72
2023/11/08 10:30:32;;;;;;;2.60;1.00;;;;;;;19.91;34.05;97633.56;5040176;28;20459;-72
2023/11/08 10:33:11;;;;;;;1.40;0.90;;;;;;;19.98;34.60;97638.06;5048350;28;20666;-72
2023/11/08 10:35:39;;;;;;;1.80;0.80;;;;;;;19.66;34.81;97630.59;5048408;28;20821;-72
2023/11/08 10:38:05;;;;;;;1.70;0.90;;;;;;;19.82;35.05;97626.78;5048201;28;20488;-72
2023/11/08 10:40:31;;;;;;;1.40;1.03;;;;;;;19.78;35.49;97634.31;5030821;28;20433;-72
2023/11/08 10:42:57;;;;;;;1.33;1.10;;;;;;;19.36;35.59;97635.41;5040901;28;20425;-71
2023/11/08 10:45:23;;;;;;;2.70;1.20;;;;;;;19.19;36.20;97630.47;5043590;28;20434;-71
2023/11/08 10:47:49;;;;;;;2.33;1.20;;;;;;;19.08;36.67;97623.84;5029280;28;20211;-72
2023/11/08 10:50:18;;;;;;;4.37;1.20;;;;;;;19.08;36.56;97621.19;5048972;28;20513;-72
2023/11/08 10:52:46;;;;;;;3.60;1.20;;;;;;;18.93;36.75;97625.78;5048499;28;20191;-72
2023/11/08 10:55:11;;;;;;;1.20;0.80;;;;;;;18.45;37.13;97613.22;5027463;28;20449;-71
2023/11/08 10:57:40;;;;;;;1.97;1.00;;;;;;;18.40;37.82;97611.97;5039536;28;20457;-72
2023/11/08 11:00:09;;;;;;;1.50;1.00;;;;;;;18.60;38.05;97610.47;5040195;28;20789;-72
2023/11/08 11:02:54;;;;;;;3.97;1.20;;;;;;;19.13;38.09;97612.63;5044673;28;20707;-70
2023/11/08 11:05:22;;;;;;;10.70;1.30;;;;;;;19.77;36.42;97599.97;5042891;28;20425;-71
2023/11/08 11:07:48;;;;;;;1.30;0.93;;;;;;;19.98;35.60;97590.19;5047758;28;21000;-71
2023/11/08 11:10:15;;;;;;;2.20;1.30;;;;;;;20.41;35.65;97593.28;5048080;28;20418;-72
2023/11/08 11:13:02;;;;;;;1.10;0.87;;;;;;;20.87;35.10;97596.91;5047089;28;20418;-71
2023/11/08 11:16:03;;;;;;;2.40;1.03;;;;;;;20.85;32.93;97587.50;5046513;28;20479;-72
2023/11/08 11:18:37;;;;;;;1.63;0.80;;;;;;;20.56;33.37;97587.75;5030151;28;20477;-72
2023/11/08 11:21:15;;;;;;;1.33;0.80;;;;;;;20.10;33.70;97583.25;5027358;28;21164;-71
2023/11/08 11:23:41;;;;;;;1.83;0.80;;;;;;;19.36;34.50;97583.09;5030660;28;20429;-71
2023/11/08 11:26:10;;;;;;;2.97;0.90;;;;;;;19.27;35.23;97579.00;5039080;28;20421;-69
2023/11/08 11:28:55;;;;;;;2.60;1.03;;;;;;;18.76;36.10;97573.00;5046801;28;20453;-72
2023/11/08 11:31:43;;;;;;;1.20;0.80;;;;;;;18.55;36.55;97574.72;5034139;28;20780;-71